Norphlet, Arkansas
Current Conditions -  °F | °C
As of 7:53 AM on Sunday 25 Jan 2015 (Local Time) from KELD Reporting Station
Clear Clear  
Wind Chill: 36°   Ceiling: Unl
Heat Index: 41°   Visibility: 10mi
Dew Point: 36°   Wind: 8mph
Humidity: 82%   Direction: 200°SSW
Pressure: 29.86"   Gusts: NA
Location:  33.32°N, 92.66°W
Report Text: KELD 251353Z AUTO 20007KT 10SM CLR 05/02 A2986 RMK AO2 SLP111 T00500022
Loading
Personal Weather Stations






























Interactive Weather Map New forecast layout! Learn more

10-Day Weather Forecast

Advertisements
Track Severe Weather on mobile